EW9551 Weather Reports


Display with metric or nautical units.
time (UTC)temp
F
wind
direction
speed
MPH
gust
MPH
rain 1hr
in
rain 24hr
in
rain mn
in
humidity
%
barometer
mb
20190123131141 32 316 2.0 4.0 0.00 0.00 0.00 95 992.4
20190123125636 32 293 1.0 5.0 0.00 0.00 0.00 95 992.4
20190123124140 32 252 2.0 5.0 0.00 0.00 0.00 95 992.3
20190123122634 33 252 2.0 5.0 0.00 0.00 0.00 95 992.3
20190123121140 33 209 2.0 7.0 0.00 0.00 0.00 95 992.1
20190123115633 33 219 4.0 9.0 0.00 0.00 0.00 95 992.1
20190123114137 33 220 4.0 7.0 0.00 0.00 0.00 95 992.1
20190123112633 33 221 5.0 9.0 0.00 0.00 0.00 95 992.1
20190123111135 33 216 3.0 6.0 0.00 0.00 0.00 95 992.1
20190123105632 33 210 3.0 7.0 0.00 0.00 0.00 95 992.3
20190123104139 33 200 3.0 6.0 0.00 0.00 0.00 95 992.4
20190123102632 33 186 3.0 7.0 0.00 0.00 0.00 95 992.5
20190123101132 32 207 2.0 4.0 0.00 0.00 0.00 96 992.5
20190123095631 32 203 2.0 6.0 0.00 0.00 0.00 96 992.5
20190123094133 32 224 3.0 6.0 0.00 0.00 0.00 95 992.5
20190123092629 32 175 2.0 5.0 0.00 0.00 0.00 96 992.5
20190123091133 32 228 3.0 6.0 0.00 0.00 0.00 96 992.6
20190123085629 32 228 2.0 6.0 0.00 0.00 0.00 96 992.7
20190123084132 31 172 4.0 6.0 0.00 0.00 0.00 96 992.7
20190123082628 31 186 1.0 5.0 0.00 0.00 0.00 96 993.0
20190123081131 31 200 2.0 7.0 0.00 0.00 0.00 96 993.2
20190123075627 31 182 3.0 7.0 0.00 0.00 0.00 96 993.3
20190123074129 31 182 3.0 6.0 0.00 0.00 0.00 96 993.4
20190123072628 31 196 3.0 4.0 0.00 0.00 0.00 95 993.5
20190123071129 31 178 1.0 4.0 0.00 0.00 0.00 96 993.6
20190123065720 30 172 0.0 1.0 0.00 0.00 0.00 96 993.9
20190123065627 30 186 2.0 4.0 0.00 0.00 0.00 96 993.7
20190123065051 30 192 3.0 5.0 0.00 0.00 0.00 95 994.1
20190123065019 30 178 2.0 4.0 0.00 0.00 0.00 96 994.0
20190123051126 30 182 2.0 5.0 0.00 0.00 0.00 95 995.0
20190123045624 30 210 3.0 6.0 0.00 0.00 0.00 95 995.2
20190123044130 29 196 3.0 5.0 0.00 0.00 0.00 95 995.4
20190123042623 29 221 2.0 4.0 0.00 0.00 0.00 95 995.6
20190123041124 30 209 1.0 5.0 0.00 0.00 0.00 95 995.6
20190123035622 29 196 2.0 4.0 0.00 0.00 0.00 95 995.7
20190123034124 29 209 2.0 4.0 0.00 0.00 0.00 95 995.8
20190123032622 29 206 3.0 6.0 0.00 0.00 0.00 95 996.2
20190123031123 29 189 3.0 6.0 0.00 0.00 0.00 95 996.5
20190123025622 29 206 3.0 4.0 0.00 0.00 0.00 95 996.8
20190123024133 29 204 3.0 5.0 0.00 0.00 0.00 95 997.1
20190123022626 29 212 2.0 4.0 0.00 0.00 0.00 95 997.3
20190123021942 29 192 0.0 0.0 0.00 0.00 0.00 95 997.8
20190123021232 29 204 0.0 0.0 0.00 0.00 0.00 94 998.2
20190123021228 29 197 0.0 0.0 0.00 0.00 0.00 95 997.9
20190123001228 31 180 0.0 0.0 0.00 0.00 0.00 94 999.8
20190122191112 31 124 0.0 0.0 0.00 0.00 0.00 91 1001.9
20190122185607 30 127 0.0 0.0 0.00 0.00 0.00 91 1002.2
20190122184115 29 127 0.0 0.0 0.00 0.00 0.00 90 1002.3
20190122182607 29 127 0.0 0.0 0.00 0.00 0.00 89 1002.3
20190122181112 30 127 0.0 0.0 0.00 0.00 0.00 89 1002.3
20190122175811 31 152 0.0 0.0 0.00 0.00 0.00 86 1002.6
20190122175807 31 152 0.0 0.0 0.00 0.00 0.00 88 1002.3
20190122175803 31 127 0.0 0.0 0.00 0.00 0.00 88 1002.3
20190122154230 35 152 0.0 0.0 0.00 0.00 0.00 82 1003.5
20190122152605 35 152 0.0 0.0 0.00 0.00 0.00 81 1003.5
20190122151108 35 151 0.0 3.0 0.00 0.00 0.00 81 1003.6
20190122145605 35 157 0.0 3.0 0.00 0.00 0.00 81 1003.9
20190122144107 36 165 0.0 0.0 0.00 0.00 0.00 80 1004.0
20190122142604 35 103 0.0 3.0 0.00 0.00 0.00 80 1004.2
20190122141109 35 169 0.0 5.0 0.00 0.00 0.00 80 1004.4
20190122135603 35 175 2.0 5.0 0.00 0.00 0.00 80 1004.5
20190122134107 35 169 1.0 4.0 0.00 0.00 0.00 81 1004.9
20190122132603 34 142 1.0 4.0 0.00 0.00 0.00 82 1005.2